Allamuchy, New Jersey
Current Conditions -  °F | °C
As of 10:53 AM on Friday 24 Oct 2014 (Local Time) from KFWN Reporting Station
Overcast Overcast  
Wind Chill: 58°   Ceiling: 2900
Heat Index: 58°   Visibility: 10mi
Dew Point: 44°   Wind: 9mph
Humidity: 60%   Direction: 350°N
Pressure: 29.85"   Gusts: NA
Location:  40.92°N, 74.81°W
Report Text: KFWN 241453Z AUTO 35008KT 10SM OVC029 14/07 A2985 RMK AO2 SLP107 T01440067 50000
Loading
Personal Weather Stations






























Interactive Weather Map
Tropical Storm Tracking
New forecast layout! Learn more

10-Day Weather Forecast

Advertisements
Track Severe Weather on mobile